Time;durP1;ratioP1;P1;durP2;ratioP2;P2;SDS_P1;SDS_P2;PMS_P1;PMS_P2;Temp;Humidity;BMP_temperature;BMP_pressure;BME280_temperature;BME280_humidity;BME280_pressure;Samples;Min_cycle;Max_cycle;Signal;HPM_P1;HPM_P2
2022/06/26 00:00:06;;;;;;;364.43;263.10;;;;;;;23.01;88.42;99432.22;411774;24;1380;-77
2022/06/26 00:00:19;;;;;;;363.18;260.28;;;;;;;23.01;88.32;99436.72;409615;24;1318;-77
2022/06/26 00:00:30;;;;;;;360.88;255.73;;;;;;;22.99;88.56;99436.03;409794;24;1282;-77
2022/06/26 00:00:40;;;;;;;360.87;252.53;;;;;;;23.01;88.99;99439.41;409551;24;1526;-77
2022/06/26 00:00:50;;;;;;;360.42;252.25;;;;;;;23.01;88.74;99437.56;409290;24;813;-76
2022/06/26 00:01:01;;;;;;;359.50;250.20;;;;;;;23.02;88.66;99435.75;409842;24;957;-76
2022/06/26 00:01:11;;;;;;;361.07;256.00;;;;;;;23.02;88.68;99433.91;411484;24;1280;-76
2022/06/26 00:01:22;;;;;;;363.38;260.40;;;;;;;23.03;88.87;99435.59;411804;24;831;-76
2022/06/26 00:01:32;;;;;;;365.23;265.70;;;;;;;23.05;88.84;99438.13;413499;23;1082;-76
2022/06/26 00:01:42;;;;;;;362.00;261.50;;;;;;;23.07;88.44;99442.31;411710;24;1187;-76
2022/06/26 00:01:53;;;;;;;359.80;258.00;;;;;;;23.07;88.38;99437.00;411774;24;1167;-76
2022/06/26 00:02:03;;;;;;;359.07;255.63;;;;;;;23.09;88.08;99435.00;409903;24;938;-76
2022/06/26 00:02:14;;;;;;;360.92;256.70;;;;;;;23.10;88.27;99441.19;409955;24;841;-76
2022/06/26 00:02:24;;;;;;;363.30;259.60;;;;;;;23.12;88.54;99439.22;409852;24;882;-76
2022/06/26 00:02:34;;;;;;;366.38;261.67;;;;;;;23.14;88.56;99439.91;411876;24;848;-76
2022/06/26 00:02:46;;;;;;;366.00;259.97;;;;;;;23.13;88.51;99435.56;409823;24;854;-76
2022/06/26 00:02:57;;;;;;;368.75;260.20;;;;;;;23.12;88.57;99434.72;411494;24;1375;-76
2022/06/26 00:03:07;;;;;;;367.43;260.77;;;;;;;23.12;88.33;99444.56;411681;24;1937;-76
2022/06/26 00:03:17;;;;;;;369.35;260.27;;;;;;;23.11;88.55;99437.53;411607;24;1394;-76
2022/06/26 00:03:28;;;;;;;366.23;256.57;;;;;;;23.09;88.37;99435.00;409968;24;1423;-76
2022/06/26 00:03:38;;;;;;;366.02;252.68;;;;;;;23.09;88.69;99437.69;409925;24;818;-76
2022/06/26 00:03:49;;;;;;;365.33;255.10;;;;;;;23.10;88.76;99443.88;411716;24;1172;-76
2022/06/26 00:03:59;;;;;;;363.75;257.88;;;;;;;23.09;88.40;99439.50;409824;24;870;-76
2022/06/26 00:04:10;;;;;;;360.67;256.43;;;;;;;23.09;88.26;99445.69;409804;24;1195;-76
2022/06/26 00:04:20;;;;;;;359.58;257.08;;;;;;;23.10;88.62;99444.69;409870;24;858;-76
2022/06/26 00:04:31;;;;;;;359.13;256.93;;;;;;;23.10;89.03;99446.53;411820;24;986;-76
2022/06/26 00:04:41;;;;;;;358.65;255.55;;;;;;;23.08;88.48;99441.34;411931;24;791;-76
2022/06/26 00:04:52;;;;;;;356.30;254.17;;;;;;;23.06;88.73;99445.97;411829;24;1263;-76
2022/06/26 00:05:03;;;;;;;355.48;251.50;;;;;;;23.08;88.59;99444.00;411539;24;1287;-76
2022/06/26 00:05:13;;;;;;;356.23;253.93;;;;;;;23.07;88.28;99447.66;411752;24;1325;-76
2022/06/26 00:05:23;;;;;;;355.47;251.87;;;;;;;23.07;88.54;99446.81;411739;24;1336;-76
2022/06/26 00:05:34;;;;;;;357.20;253.52;;;;;;;23.07;88.60;99441.47;411829;24;1228;-76
2022/06/26 00:05:44;;;;;;;359.80;252.80;;;;;;;23.06;88.38;99447.81;411810;24;926;-76
2022/06/26 00:05:55;;;;;;;362.57;253.83;;;;;;;23.04;88.43;99441.78;411697;24;1279;-76
2022/06/26 00:06:05;;;;;;;370.35;255.65;;;;;;;23.04;88.19;99442.63;409935;24;798;-76
2022/06/26 00:06:16;;;;;;;366.23;254.27;;;;;;;23.02;88.60;99438.41;409770;24;1266;-76
2022/06/26 00:06:26;;;;;;;363.63;254.48;;;;;;;23.02;88.49;99443.75;409964;24;914;-76
2022/06/26 00:06:37;;;;;;;354.60;251.37;;;;;;;23.00;88.99;99441.22;409863;24;970;-76
2022/06/26 00:06:48;;;;;;;359.90;254.23;;;;;;;23.00;89.04;99453.72;409874;24;1319;-76
2022/06/26 00:07:00;;;;;;;361.80;252.60;;;;;;;23.00;89.13;99437.72;409826;24;1144;-76
2022/06/26 00:07:10;;;;;;;363.90;252.27;;;;;;;23.00;89.15;99443.06;409842;24;858;-76
2022/06/26 00:07:20;;;;;;;366.00;253.70;;;;;;;23.02;89.51;99446.41;411614;24;1027;-76
2022/06/26 00:07:31;;;;;;;365.42;253.43;;;;;;;23.03;88.99;99440.09;409920;24;834;-76
2022/06/26 00:07:41;;;;;;;365.57;256.03;;;;;;;23.02;88.78;99438.41;411849;24;992;-76
2022/06/26 00:07:52;;;;;;;364.42;256.92;;;;;;;23.02;88.41;99441.91;413746;23;1124;-76
2022/06/26 00:08:02;;;;;;;367.17;257.60;;;;;;;23.02;88.79;99443.75;413592;23;1010;-76
2022/06/26 00:08:13;;;;;;;366.00;256.92;;;;;;;23.02;88.62;99443.75;413772;23;892;-76
2022/06/26 00:08:25;;;;;;;361.47;252.00;;;;;;;23.04;88.63;99444.44;411619;24;1355;-76
2022/06/26 00:08:36;;;;;;;360.67;251.82;;;;;;;23.03;88.48;99450.78;407855;24;1366;-76
2022/06/26 00:08:46;;;;;;;358.87;249.73;;;;;;;23.01;88.82;99442.06;407920;24;818;-76
2022/06/26 00:08:56;;;;;;;358.75;247.88;;;;;;;23.00;88.93;99440.38;409653;24;1274;-77
2022/06/26 00:09:07;;;;;;;356.87;247.47;;;;;;;23.00;88.87;99443.91;408940;24;842;-76
2022/06/26 00:09:17;;;;;;;361.03;254.43;;;;;;;23.01;88.81;99442.06;409659;24;934;-76
2022/06/26 00:09:28;;;;;;;366.42;261.25;;;;;;;23.01;88.51;99452.75;409691;24;1096;-76
2022/06/26 00:09:38;;;;;;;365.70;262.50;;;;;;;23.01;88.72;99442.91;407883;24;854;-76
2022/06/26 00:09:49;;;;;;;362.73;255.23;;;;;;;23.01;88.46;99448.25;409874;24;1210;-76
2022/06/26 00:10:00;;;;;;;356.42;247.48;;;;;;;23.01;88.53;99447.41;411720;24;1273;-76
2022/06/26 00:10:10;;;;;;;357.33;249.97;;;;;;;23.02;88.59;99449.09;411532;24;1184;-76
2022/06/26 00:10:20;;;;;;;357.45;254.05;;;;;;;23.04;88.27;99447.13;411813;24;837;-76
2022/06/26 00:10:31;;;;;;;360.47;259.43;;;;;;;23.03;88.25;99451.63;413649;23;1261;-76
2022/06/26 00:10:41;;;;;;;361.60;256.58;;;;;;;23.02;88.44;99454.44;413825;23;837;-76
2022/06/26 00:10:52;;;;;;;363.63;252.63;;;;;;;23.01;87.99;99452.75;409754;24;1163;-76
2022/06/26 00:11:03;;;;;;;364.00;250.75;;;;;;;22.99;88.07;99446.72;409886;24;889;-76
2022/06/26 00:11:13;;;;;;;366.02;254.65;;;;;;;22.98;88.29;99453.88;407909;24;1187;-76
2022/06/26 00:11:23;;;;;;;366.07;259.03;;;;;;;22.99;87.70;99449.38;411567;24;1169;-76
2022/06/26 00:11:34;;;;;;;366.10;260.07;;;;;;;22.99;87.92;99446.72;409806;24;1311;-76
2022/06/26 00:11:44;;;;;;;366.05;258.00;;;;;;;23.00;88.42;99449.22;411570;24;1238;-76
2022/06/26 00:11:55;;;;;;;365.40;257.23;;;;;;;23.01;88.34;99453.59;411914;24;1178;-76
2022/06/26 00:12:06;;;;;;;364.70;256.77;;;;;;;23.03;88.50;99445.44;411869;24;838;-76
2022/06/26 00:12:16;;;;;;;360.55;252.80;;;;;;;23.03;88.61;99448.94;411682;24;899;-76
2022/06/26 00:12:27;;;;;;;361.67;255.07;;;;;;;23.04;88.33;99452.44;413858;23;771;-76
2022/06/26 00:12:37;;;;;;;362.40;254.40;;;;;;;23.05;87.88;99449.63;409721;24;1265;-76
2022/06/26 00:12:47;;;;;;;363.43;256.50;;;;;;;23.05;88.08;99448.78;408020;24;897;-76
2022/06/26 00:12:58;;;;;;;364.25;256.13;;;;;;;23.08;88.15;99453.84;409900;24;1141;-76
2022/06/26 00:13:08;;;;;;;364.90;259.93;;;;;;;23.08;88.39;99449.34;409897;24;805;-76
2022/06/26 00:13:19;;;;;;;364.10;258.92;;;;;;;23.10;88.57;99451.88;407866;24;1261;-76
2022/06/26 00:13:29;;;;;;;361.43;256.60;;;;;;;23.08;88.15;99448.50;411483;24;1312;-76
2022/06/26 00:13:40;;;;;;;361.88;250.32;;;;;;;23.08;88.37;99449.34;408081;24;1059;-76
2022/06/26 00:13:50;;;;;;;363.50;253.33;;;;;;;23.05;88.16;99443.47;407933;24;766;-76
2022/06/26 00:14:01;;;;;;;361.13;244.68;;;;;;;23.04;88.42;99447.97;411979;24;921;-76
2022/06/26 00:14:11;;;;;;;360.23;243.37;;;;;;;23.05;88.43;99443.47;409860;24;1017;-76
2022/06/26 00:14:21;;;;;;;360.77;240.40;;;;;;;23.04;88.32;99447.97;409721;24;1418;-76
2022/06/26 00:14:32;;;;;;;366.83;251.35;;;;;;;23.07;87.94;99449.50;409763;24;772;-76
2022/06/26 00:14:42;;;;;;;368.17;257.33;;;;;;;23.08;88.04;99456.50;409770;24;1275;-76
2022/06/26 00:14:53;;;;;;;369.65;261.23;;;;;;;23.07;87.99;99446.81;409879;24;841;-76
2022/06/26 00:15:03;;;;;;;366.17;258.70;;;;;;;23.08;87.68;99448.50;409679;24;1327;-76
2022/06/26 00:15:14;;;;;;;365.20;256.10;;;;;;;23.08;87.79;99448.50;409774;24;1206;-76
2022/06/26 00:15:24;;;;;;;363.50;256.53;;;;;;;23.08;87.79;99448.50;413726;23;885;-76
2022/06/26 00:15:35;;;;;;;365.98;258.95;;;;;;;23.07;88.07;99447.66;413647;23;865;-76
2022/06/26 00:15:45;;;;;;;364.63;260.07;;;;;;;23.07;88.25;99449.50;413809;23;837;-76
2022/06/26 00:15:56;;;;;;;365.13;260.50;;;;;;;23.06;88.12;99456.66;413726;23;885;-76
2022/06/26 00:16:06;;;;;;;363.60;261.37;;;;;;;23.05;88.53;99454.13;411763;24;803;-76
2022/06/26 00:16:16;;;;;;;363.92;263.10;;;;;;;23.07;88.22;99454.84;411438;24;1331;-77
2022/06/26 00:16:27;;;;;;;363.20;263.57;;;;;;;23.08;88.51;99456.50;413604;23;1286;-77
2022/06/26 00:16:37;;;;;;;359.33;260.27;;;;;;;23.06;88.57;99450.47;411740;24;1190;-77
2022/06/26 00:16:48;;;;;;;360.53;258.50;;;;;;;23.03;88.27;99448.09;411814;24;823;-77
2022/06/26 00:16:58;;;;;;;359.47;256.20;;;;;;;23.03;88.28;99456.09;411735;24;1245;-76
2022/06/26 00:17:08;;;;;;;363.92;254.80;;;;;;;23.02;88.28;99457.09;411783;24;1008;-76
2022/06/26 00:17:19;;;;;;;364.93;255.87;;;;;;;23.02;87.94;99454.44;411800;24;793;-76
2022/06/26 00:17:29;;;;;;;369.15;259.67;;;;;;;23.00;87.73;99451.06;411656;24;1268;-76
2022/06/26 00:17:40;;;;;;;368.17;261.80;;;;;;;22.98;87.87;99450.38;413467;23;1089;-76
2022/06/26 00:17:50;;;;;;;367.50;257.55;;;;;;;22.99;88.20;99454.72;411694;23;1174;-76
2022/06/26 00:18:00;;;;;;;366.90;255.73;;;;;;;23.00;88.18;99456.41;411631;24;1192;-76
2022/06/26 00:18:11;;;;;;;365.27;253.63;;;;;;;23.00;88.01;99451.91;411388;24;867;-76
2022/06/26 00:18:21;;;;;;;364.90;257.23;;;;;;;23.02;88.17;99455.28;411257;24;789;-76
2022/06/26 00:18:32;;;;;;;363.50;253.37;;;;;;;23.03;88.20;99458.78;411671;24;1261;-76
2022/06/26 00:18:42;;;;;;;365.67;254.80;;;;;;;23.03;88.44;99456.09;409815;24;1036;-76
2022/06/26 00:18:53;;;;;;;367.67;257.17;;;;;;;23.04;88.28;99460.47;411765;24;1199;-76
2022/06/26 00:19:03;;;;;;;365.75;259.35;;;;;;;23.05;87.91;99460.31;409917;24;842;-76
2022/06/26 00:19:13;;;;;;;365.93;261.23;;;;;;;23.05;87.67;99456.81;411711;24;737;-76
2022/06/26 00:19:24;;;;;;;366.35;260.08;;;;;;;23.05;88.15;99459.47;411711;24;1258;-76
2022/06/26 00:19:34;;;;;;;366.13;259.33;;;;;;;23.07;87.50;99457.50;411742;24;766;-77
2022/06/26 00:19:45;;;;;;;365.10;259.70;;;;;;;23.07;87.83;99460.16;411804;24;893;-76
2022/06/26 00:19:55;;;;;;;363.63;261.80;;;;;;;23.06;87.62;99461.16;409592;24;1283;-76
2022/06/26 00:20:06;;;;;;;363.70;261.37;;;;;;;23.07;88.15;99452.16;411556;24;905;-76
2022/06/26 00:20:16;;;;;;;361.95;258.80;;;;;;;23.07;87.94;99463.69;411863;24;846;-76
2022/06/26 00:20:27;;;;;;;361.33;255.97;;;;;;;23.08;88.29;99464.53;411831;24;886;-76
2022/06/26 00:20:37;;;;;;;361.05;257.83;;;;;;;23.07;88.24;99462.84;407966;24;1210;-76
2022/06/26 00:20:47;;;;;;;363.10;259.87;;;;;;;23.08;88.44;99461.84;409748;24;1214;-76
2022/06/26 00:20:58;;;;;;;366.60;257.58;;;;;;;23.08;88.21;99464.53;411454;24;1458;-76
2022/06/26 00:21:08;;;;;;;366.77;255.07;;;;;;;23.09;88.22;99463.53;409665;24;1115;-76
2022/06/26 00:21:19;;;;;;;367.15;252.18;;;;;;;23.09;88.09;99463.53;409966;24;928;-76
2022/06/26 00:21:29;;;;;;;367.13;257.70;;;;;;;23.09;88.11;99463.53;409953;24;834;-76
2022/06/26 00:21:40;;;;;;;367.80;258.00;;;;;;;23.09;87.80;99469.72;409734;24;997;-76
2022/06/26 00:21:50;;;;;;;369.98;260.20;;;;;;;23.09;88.09;99466.22;409885;24;786;-76
2022/06/26 00:22:05;;;;;;;369.33;261.38;;;;;;;23.06;88.08;99464.66;409816;24;1013;-76
2022/06/26 00:22:17;;;;;;;369.15;263.88;;;;;;;23.05;87.98;99464.81;411759;24;888;-76
2022/06/26 00:22:27;;;;;;;370.77;261.85;;;;;;;23.02;87.83;99460.59;409803;24;1386;-76
2022/06/26 00:22:37;;;;;;;369.13;261.27;;;;;;;23.01;87.96;99468.75;409890;24;794;-76
2022/06/26 00:22:48;;;;;;;367.23;257.27;;;;;;;22.97;88.27;99464.69;409898;24;1001;-76
2022/06/26 00:22:58;;;;;;;364.57;256.87;;;;;;;22.94;88.17;99473.03;411553;24;1251;-76
2022/06/26 00:23:09;;;;;;;361.95;249.77;;;;;;;22.93;88.25;99464.19;409741;24;1342;-76
2022/06/26 00:23:19;;;;;;;361.43;251.23;;;;;;;22.92;88.30;99470.50;408082;24;1908;-76
2022/06/26 00:23:29;;;;;;;361.40;252.98;;;;;;;22.92;88.03;99469.66;407814;24;1244;-76
2022/06/26 00:23:40;;;;;;;364.30;256.27;;;;;;;22.89;88.14;99465.44;409921;24;913;-76
2022/06/26 00:23:51;;;;;;;365.70;257.38;;;;;;;22.88;88.11;99477.09;411265;24;1199;-76
2022/06/26 00:24:02;;;;;;;366.50;257.70;;;;;;;22.88;88.71;99469.94;411698;24;1021;-76
2022/06/26 00:24:12;;;;;;;367.20;261.42;;;;;;;22.87;88.53;99468.25;409706;24;849;-76
2022/06/26 00:24:23;;;;;;;367.53;261.77;;;;;;;22.89;88.54;99476.97;407876;24;795;-76
2022/06/26 00:24:33;;;;;;;367.33;261.90;;;;;;;22.88;88.75;99474.44;409828;24;836;-76
2022/06/26 00:24:44;;;;;;;366.27;260.30;;;;;;;22.87;88.76;99470.94;409807;24;787;-76
2022/06/26 00:24:54;;;;;;;367.23;254.73;;;;;;;22.87;88.93;99470.94;409831;24;939;-76
2022/06/26 00:25:05;;;;;;;369.30;253.88;;;;;;;22.87;88.64;99468.25;409515;24;870;-76
2022/06/26 00:25:15;;;;;;;371.48;254.15;;;;;;;22.87;88.54;99468.25;409590;24;1297;-76
2022/06/26 00:25:26;;;;;;;372.93;259.87;;;;;;;22.91;88.83;99475.97;408023;24;842;-76
2022/06/26 00:25:36;;;;;;;369.92;260.67;;;;;;;22.90;88.82;99477.81;411556;24;878;-76
2022/06/26 00:25:47;;;;;;;365.73;257.10;;;;;;;22.91;88.57;99470.66;409897;24;1128;-76
2022/06/26 00:25:57;;;;;;;361.50;254.63;;;;;;;22.89;89.02;99474.31;411694;24;847;-76
2022/06/26 00:26:07;;;;;;;364.30;257.17;;;;;;;22.89;88.89;99471.63;411836;24;931;-76
2022/06/26 00:26:18;;;;;;;365.17;258.90;;;;;;;22.92;89.28;99483.00;409932;24;890;-76
2022/06/26 00:26:28;;;;;;;366.93;261.60;;;;;;;22.93;89.04;99474.00;409843;24;818;-76
2022/06/26 00:26:39;;;;;;;362.33;254.30;;;;;;;22.91;89.04;99474.16;409931;24;803;-76
2022/06/26 00:26:49;;;;;;;360.80;249.15;;;;;;;22.93;89.29;99476.69;407855;24;1451;-76
2022/06/26 00:27:02;;;;;;;362.00;248.33;;;;;;;22.94;89.02;99475.69;408059;24;905;-76
2022/06/26 00:27:13;;;;;;;362.10;250.55;;;;;;;22.95;88.68;99475.56;409779;24;838;-76
2022/06/26 00:27:23;;;;;;;361.07;251.33;;;;;;;22.94;88.64;99475.69;410906;24;1230;-77
2022/06/26 00:27:33;;;;;;;359.97;254.57;;;;;;;22.94;88.76;99470.34;411174;24;1442;-76
2022/06/26 00:27:46;;;;;;;362.67;258.42;;;;;;;22.93;88.97;99477.53;411777;24;831;-76
2022/06/26 00:27:56;;;;;;;365.23;261.88;;;;;;;22.92;88.79;99473.16;413626;23;886;-76
2022/06/26 00:28:06;;;;;;;363.47;259.67;;;;;;;22.93;88.68;99476.69;411859;24;881;-76
2022/06/26 00:28:17;;;;;;;359.85;251.32;;;;;;;22.91;88.48;99474.16;409792;24;841;-76
2022/06/26 00:28:27;;;;;;;361.60;253.07;;;;;;;22.89;88.24;99470.78;407462;24;1254;-76
2022/06/26 00:28:38;;;;;;;362.15;253.68;;;;;;;22.88;88.44;99469.94;407830;24;763;-76
2022/06/26 00:28:48;;;;;;;369.57;261.33;;;;;;;22.85;88.34;99475.56;407730;24;1258;-76
2022/06/26 00:28:58;;;;;;;372.00;262.48;;;;;;;22.86;88.30;99477.25;407866;24;1154;-76
2022/06/26 00:29:09;;;;;;;373.20;262.17;;;;;;;22.85;88.46;99475.56;411660;24;1263;-76
2022/06/26 00:29:19;;;;;;;368.37;257.33;;;;;;;22.86;88.39;99471.91;408774;24;807;-76
2022/06/26 00:29:30;;;;;;;367.25;258.92;;;;;;;22.86;88.60;99471.91;411072;24;975;-76
2022/06/26 00:29:41;;;;;;;368.75;261.17;;;;;;;22.85;88.94;99472.91;413932;23;794;-76
2022/06/26 00:29:52;;;;;;;369.73;261.67;;;;;;;22.87;89.01;99483.44;411506;24;842;-76
2022/06/26 00:30:02;;;;;;;370.93;261.33;;;;;;;22.83;88.68;99472.19;413744;23;1134;-76
2022/06/26 00:30:13;;;;;;;369.10;261.75;;;;;;;22.84;88.87;99479.22;411601;24;1290;-76
2022/06/26 00:30:23;;;;;;;366.00;258.70;;;;;;;22.81;88.24;99476.84;408650;24;855;-76
2022/06/26 00:30:34;;;;;;;362.57;252.20;;;;;;;22.81;88.10;99473.34;409769;24;912;-76
2022/06/26 00:30:45;;;;;;;363.92;253.88;;;;;;;22.80;87.92;99477.81;409677;24;832;-76
2022/06/26 00:30:56;;;;;;;363.33;258.55;;;;;;;22.81;88.01;99476.84;411740;24;780;-76
2022/06/26 00:31:06;;;;;;;362.77;263.07;;;;;;;22.82;87.74;99478.53;411806;24;1120;-76
2022/06/26 00:31:16;;;;;;;361.70;264.23;;;;;;;22.82;88.03;99469.69;409509;24;993;-76
2022/06/26 00:31:27;;;;;;;365.90;263.53;;;;;;;22.84;87.83;99483.72;409856;24;859;-76
2022/06/26 00:31:37;;;;;;;368.90;260.83;;;;;;;22.84;87.99;99479.22;413527;23;1290;-76
2022/06/26 00:31:48;;;;;;;367.23;255.10;;;;;;;22.85;87.69;99475.56;411879;24;763;-76
2022/06/26 00:31:59;;;;;;;365.17;257.48;;;;;;;22.86;87.99;99487.94;411489;24;1340;-76
2022/06/26 00:32:09;;;;;;;361.73;259.50;;;;;;;22.87;87.93;99473.59;413701;23;834;-76
2022/06/26 00:32:19;;;;;;;362.67;261.17;;;;;;;22.87;87.44;99481.59;411748;24;786;-76
2022/06/26 00:32:30;;;;;;;362.53;258.50;;;;;;;22.89;87.91;99476.97;409934;24;901;-76
2022/06/26 00:32:40;;;;;;;364.42;260.63;;;;;;;22.89;88.05;99476.13;410068;24;845;-77
2022/06/26 00:32:51;;;;;;;362.55;256.70;;;;;;;22.88;87.98;99485.97;411758;24;1030;-77
2022/06/26 00:33:01;;;;;;;364.07;259.43;;;;;;;22.89;88.29;99482.31;411693;24;1160;-77
2022/06/26 00:33:12;;;;;;;365.70;258.13;;;;;;;22.88;88.34;99483.28;411688;24;857;-77
2022/06/26 00:33:22;;;;;;;369.42;261.85;;;;;;;22.87;88.37;99481.59;411855;24;964;-76
2022/06/26 00:33:32;;;;;;;370.03;264.43;;;;;;;22.85;88.29;99478.25;407996;24;835;-76
2022/06/26 00:33:43;;;;;;;369.85;265.42;;;;;;;22.85;88.57;99480.91;407930;24;1315;-76
2022/06/26 00:33:55;;;;;;;370.00;265.27;;;;;;;22.86;88.70;99474.59;409850;24;841;-76
2022/06/26 00:34:05;;;;;;;367.75;258.77;;;;;;;22.87;88.94;99484.28;411489;24;1418;-76
2022/06/26 00:34:15;;;;;;;365.07;254.70;;;;;;;22.88;88.90;99482.44;411570;24;1391;-76
2022/06/26 00:34:26;;;;;;;363.05;256.67;;;;;;;22.88;88.52;99480.63;411792;24;1215;-76
2022/06/26 00:34:36;;;;;;;364.07;258.77;;;;;;;22.89;88.27;99481.47;411792;24;837;-76
2022/06/26 00:34:47;;;;;;;366.02;261.55;;;;;;;22.89;88.74;99474.31;410028;24;1208;-77
2022/06/26 00:34:57;;;;;;;363.17;261.07;;;;;;;22.88;88.80;99480.63;411759;24;995;-77
2022/06/26 00:35:08;;;;;;;362.20;261.90;;;;;;;22.89;88.69;99476.97;411736;24;890;-77
2022/06/26 00:35:18;;;;;;;360.15;259.30;;;;;;;22.87;88.15;99484.28;411695;24;829;-77
2022/06/26 00:35:29;;;;;;;361.15;252.88;;;;;;;22.87;88.09;99481.59;409921;24;835;-77
2022/06/26 00:35:39;;;;;;;364.70;255.87;;;;;;;22.87;88.28;99480.75;409825;24;828;-77
2022/06/26 00:35:50;;;;;;;362.83;257.33;;;;;;;22.86;88.18;99481.75;411616;24;1469;-77
2022/06/26 00:36:00;;;;;;;365.50;264.47;;;;;;;22.86;88.44;99482.59;409865;24;1414;-77
2022/06/26 00:36:10;;;;;;;362.33;261.20;;;;;;;22.86;88.28;99477.25;409825;24;934;-77
2022/06/26 00:36:21;;;;;;;363.17;257.10;;;;;;;22.85;88.04;99474.72;408094;24;836;-77
2022/06/26 00:36:31;;;;;;;361.80;256.27;;;;;;;22.85;88.26;99482.72;407975;24;1061;-76
2022/06/26 00:36:42;;;;;;;361.73;257.13;;;;;;;22.85;88.45;99480.91;411697;24;813;-76
2022/06/26 00:36:52;;;;;;;360.70;258.33;;;;;;;22.85;88.09;99475.56;412723;23;862;-77
2022/06/26 00:37:03;;;;;;;359.40;258.42;;;;;;;22.84;88.39;99479.22;411282;24;1703;-76
2022/06/26 00:37:13;;;;;;;361.93;258.77;;;;;;;22.84;88.52;99479.22;407871;24;875;-76
2022/06/26 00:37:23;;;;;;;363.40;256.38;;;;;;;22.84;88.27;99481.91;409824;24;792;-76
2022/06/26 00:37:34;;;;;;;362.13;252.50;;;;;;;22.84;88.15;99481.06;411738;24;1330;-76
2022/06/26 00:37:44;;;;;;;359.08;255.45;;;;;;;22.83;88.33;99484.72;409783;24;1406;-76
2022/06/26 00:37:55;;;;;;;360.37;260.07;;;;;;;22.82;88.59;99480.34;413726;23;842;-76
2022/06/26 00:38:06;;;;;;;362.00;259.60;;;;;;;22.82;88.08;99478.53;413481;23;1426;-76
2022/06/26 00:38:16;;;;;;;362.98;255.98;;;;;;;22.83;88.38;99477.53;413544;23;1241;-76
2022/06/26 00:38:27;;;;;;;365.87;258.17;;;;;;;22.83;88.47;99480.22;413797;23;1180;-76
2022/06/26 00:38:37;;;;;;;367.42;260.38;;;;;;;22.82;88.48;99480.34;411609;24;813;-76
2022/06/26 00:38:48;;;;;;;370.23;262.70;;;;;;;22.81;88.27;99476.84;411512;24;813;-76
2022/06/26 00:38:58;;;;;;;369.07;261.87;;;;;;;22.83;88.11;99480.22;411771;24;810;-76
2022/06/26 00:39:08;;;;;;;368.38;263.05;;;;;;;22.81;88.12;99482.19;411729;24;946;-76
2022/06/26 00:39:19;;;;;;;365.63;260.57;;;;;;;22.80;87.90;99483.16;409849;24;837;-76
2022/06/26 00:39:29;;;;;;;366.33;259.52;;;;;;;22.79;87.89;99476.13;411729;24;865;-76
2022/06/26 00:39:40;;;;;;;367.03;258.63;;;;;;;22.79;87.64;99481.47;411682;24;1077;-76
2022/06/26 00:39:50;;;;;;;367.48;258.85;;;;;;;22.77;87.36;99480.75;411772;24;809;-76
2022/06/26 00:40:01;;;;;;;366.40;261.87;;;;;;;22.75;87.66;99473.88;413609;23;979;-76
2022/06/26 00:40:11;;;;;;;365.23;261.75;;;;;;;22.72;87.41;99480.34;411848;24;1138;-76
2022/06/26 00:40:22;;;;;;;365.60;264.07;;;;;;;22.72;87.81;99480.34;411796;24;877;-76
2022/06/26 00:40:32;;;;;;;363.20;262.42;;;;;;;22.73;87.42;99482.00;411920;24;802;-76
2022/06/26 00:40:42;;;;;;;364.07;261.13;;;;;;;22.73;87.61;99478.50;411473;24;939;-76
2022/06/26 00:40:53;;;;;;;363.25;260.23;;;;;;;22.74;87.52;99478.38;411632;24;1286;-76
2022/06/26 00:41:05;;;;;;;365.07;257.07;;;;;;;22.74;87.30;99478.38;409652;24;1267;-76
2022/06/26 00:41:15;;;;;;;363.67;259.35;;;;;;;22.75;87.68;99480.06;409752;24;1504;-76
2022/06/26 00:41:26;;;;;;;363.02;259.48;;;;;;;22.76;87.64;99476.41;409784;24;1470;-76
2022/06/26 00:41:38;;;;;;;365.97;259.10;;;;;;;22.77;87.55;99478.09;409940;24;869;-76
2022/06/26 00:41:51;;;;;;;365.48;256.25;;;;;;;22.79;87.99;99481.47;409784;24;891;-76
2022/06/26 00:42:02;;;;;;;363.48;254.70;;;;;;;22.78;87.73;99479.78;409956;24;875;-76
2022/06/26 00:42:13;;;;;;;362.45;252.75;;;;;;;22.79;87.96;99486.81;408043;24;818;-76
2022/06/26 00:42:23;;;;;;;362.03;252.37;;;;;;;22.79;87.96;99481.47;409971;24;791;-76
2022/06/26 00:42:34;;;;;;;364.50;258.20;;;;;;;22.79;88.08;99478.81;409766;24;1231;-76
2022/06/26 00:42:44;;;;;;;366.35;258.25;;;;;;;22.80;87.94;99485.00;411878;24;814;-76
2022/06/26 00:42:55;;;;;;;368.37;258.80;;;;;;;22.82;88.19;99475.00;411804;24;841;-76
2022/06/26 00:43:06;;;;;;;368.10;257.70;;;;;;;22.82;87.58;99483.03;409879;24;937;-76
2022/06/26 00:43:16;;;;;;;368.35;260.17;;;;;;;22.79;87.74;99473.47;409643;24;1951;-76
2022/06/26 00:43:28;;;;;;;368.98;260.15;;;;;;;22.81;88.09;99479.50;409925;24;1201;-76
2022/06/26 00:43:38;;;;;;;367.25;262.55;;;;;;;22.81;88.05;99479.50;413661;23;892;-76
2022/06/26 00:43:49;;;;;;;365.25;264.15;;;;;;;22.81;88.07;99476.84;411678;24;1327;-76
2022/06/26 00:43:59;;;;;;;365.27;264.97;;;;;;;22.80;87.86;99477.81;409761;24;989;-76
2022/06/26 00:44:16;;;;;;;365.83;264.88;;;;;;;22.80;87.74;99476.97;409747;24;1426;-76
2022/06/26 00:44:27;;;;;;;364.30;259.15;;;;;;;22.80;87.87;99476.97;409859;24;853;-75
2022/06/26 00:44:37;;;;;;;363.25;256.02;;;;;;;22.78;88.25;99479.78;409734;24;845;-75
2022/06/26 00:44:51;;;;;;;362.80;255.80;;;;;;;22.78;87.94;99477.13;406099;24;825;-75
2022/06/26 00:45:03;;;;;;;362.65;256.60;;;;;;;22.78;88.05;99474.47;407921;24;1021;-75
2022/06/26 00:45:13;;;;;;;362.25;257.17;;;;;;;22.76;87.92;99475.56;409623;24;1236;-75
2022/06/26 00:45:23;;;;;;;363.08;253.88;;;;;;;22.75;88.02;99474.72;408171;24;834;-75
2022/06/26 00:45:34;;;;;;;366.90;262.70;;;;;;;22.75;87.89;99472.03;409977;24;770;-75
2022/06/26 00:45:44;;;;;;;366.02;263.33;;;;;;;22.74;88.03;99473.03;409756;24;1290;-77
2022/06/26 00:45:55;;;;;;;367.97;268.10;;;;;;;22.73;88.35;99473.16;409841;24;1315;-77
2022/06/26 00:46:05;;;;;;;366.60;266.30;;;;;;;22.74;88.11;99475.69;409410;24;1500;-77
2022/06/26 00:46:16;;;;;;;366.17;267.73;;;;;;;22.74;88.46;99475.69;408923;24;798;-76
2022/06/26 00:46:26;;;;;;;368.17;269.15;;;;;;;22.74;88.29;99472.19;411590;24;1203;-75
2022/06/26 00:46:37;;;;;;;371.57;267.73;;;;;;;22.73;88.30;99479.34;409842;24;1235;-76
2022/06/26 00:46:47;;;;;;;373.40;268.73;;;;;;;22.74;88.77;99475.69;409806;24;822;-77
2022/06/26 00:46:57;;;;;;;369.73;264.67;;;;;;;22.72;88.65;99474.16;413628;23;1183;-76
2022/06/26 00:47:08;;;;;;;369.50;268.50;;;;;;;22.69;88.63;99467.28;409887;24;815;-76
2022/06/26 00:47:19;;;;;;;369.23;265.47;;;;;;;22.70;88.71;99476.13;413696;23;793;-76
2022/06/26 00:47:32;;;;;;;368.98;266.65;;;;;;;22.69;88.71;99471.78;411603;24;906;-76
2022/06/26 00:47:42;;;;;;;367.30;262.67;;;;;;;22.69;88.39;99477.94;411854;24;862;-76
2022/06/26 00:47:53;;;;;;;365.95;262.50;;;;;;;22.69;88.70;99472.63;413615;23;1266;-76
2022/06/26 00:48:03;;;;;;;363.00;256.37;;;;;;;22.68;88.55;99468.25;409748;24;1522;-75
2022/06/26 00:48:14;;;;;;;363.95;258.40;;;;;;;22.67;88.30;99471.91;411760;24;927;-75
2022/06/26 00:48:24;;;;;;;366.20;261.27;;;;;;;22.68;88.32;99473.59;409823;24;785;-75
2022/06/26 00:48:35;;;;;;;367.58;260.63;;;;;;;22.67;88.62;99477.25;409829;24;846;-75
2022/06/26 00:48:45;;;;;;;365.10;258.93;;;;;;;22.63;88.37;99473.19;407862;24;1352;-75
2022/06/26 00:48:55;;;;;;;364.93;258.20;;;;;;;22.66;87.96;99472.91;411625;24;860;-75
2022/06/26 00:49:06;;;;;;;365.85;263.90;;;;;;;22.66;88.48;99472.91;411884;24;894;-76